createdAt,value
2022-12-31T00:01:27.231Z,87.23
2022-12-31T00:03:55.384Z,86.99
2022-12-31T00:06:32.058Z,87.45
2022-12-31T00:09:00.981Z,87.37
2022-12-31T00:11:29.640Z,87.49
2022-12-31T00:13:57.658Z,87.41
2022-12-31T00:16:28.718Z,87.35
2022-12-31T00:18:59.466Z,87.21
2022-12-31T00:21:29.041Z,87.23
2022-12-31T00:23:56.966Z,86.45
2022-12-31T00:26:26.806Z,86.33
2022-12-31T00:28:55.791Z,86.24
2022-12-31T00:31:25.846Z,85.92
2022-12-31T00:33:53.286Z,86.10
2022-12-31T00:36:21.852Z,85.70
2022-12-31T00:38:50.491Z,85.61
2022-12-31T00:41:18.832Z,85.34
2022-12-31T00:43:46.388Z,85.33
2022-12-31T00:46:13.921Z,85.44
2022-12-31T00:48:41.504Z,85.01
2022-12-31T00:51:12.024Z,84.65
2022-12-31T00:53:39.345Z,84.71
2022-12-31T00:56:21.384Z,84.80
2022-12-31T00:58:48.826Z,84.82
2022-12-31T01:01:27.868Z,85.08
2022-12-31T01:03:59.211Z,84.84
2022-12-31T01:06:26.792Z,84.77
2022-12-31T01:08:55.851Z,84.38
2022-12-31T01:11:24.700Z,84.57
2022-12-31T01:14:06.415Z,84.78
2022-12-31T01:16:42.559Z,84.20
2022-12-31T01:19:12.821Z,83.99
2022-12-31T01:21:40.600Z,84.17
2022-12-31T01:24:09.753Z,84.15
2022-12-31T01:26:37.548Z,84.17
2022-12-31T01:29:06.398Z,84.14
2022-12-31T01:31:35.059Z,84.42
2022-12-31T01:34:02.536Z,83.81
2022-12-31T01:36:32.989Z,84.21
2022-12-31T01:39:02.078Z,84.35
2022-12-31T01:41:33.183Z,84.24
2022-12-31T01:44:02.689Z,84.34
2022-12-31T01:46:32.612Z,84.56
2022-12-31T01:49:43.998Z,84.38
2022-12-31T01:52:30.450Z,84.81
2022-12-31T01:55:08.886Z,84.56
2022-12-31T01:57:37.598Z,85.08
2022-12-31T02:00:06.182Z,85.40
2022-12-31T02:02:33.553Z,84.93
2022-12-31T02:05:06.024Z,84.98
2022-12-31T02:07:33.082Z,85.52
2022-12-31T02:10:00.449Z,84.91
2022-12-31T02:12:27.499Z,85.44
2022-12-31T02:14:55.401Z,85.76
2022-12-31T02:17:31.367Z,86.19
2022-12-31T02:20:07.193Z,85.79
2022-12-31T02:22:37.162Z,86.01
2022-12-31T02:25:34.923Z,85.97
2022-12-31T02:28:07.791Z,86.28
2022-12-31T02:30:36.637Z,86.08
2022-12-31T02:33:44.961Z,85.65
2022-12-31T02:36:25.709Z,86.01
2022-12-31T02:38:53.646Z,86.33
2022-12-31T02:41:40.387Z,86.58
2022-12-31T02:44:27.049Z,86.33
2022-12-31T02:47:09.520Z,86.68
2022-12-31T02:50:07.256Z,86.71
2022-12-31T02:52:34.321Z,86.67
2022-12-31T02:55:10.433Z,87.08
2022-12-31T02:57:50.411Z,86.86
2022-12-31T03:00:36.850Z,87.05
2022-12-31T03:03:06.072Z,87.44
2022-12-31T03:05:37.956Z,87.17
2022-12-31T03:08:05.236Z,87.36
2022-12-31T03:10:32.312Z,87.57
2022-12-31T03:13:00.141Z,87.46
2022-12-31T03:15:31.366Z,87.14
2022-12-31T03:18:06.053Z,87.46
2022-12-31T03:20:53.200Z,87.12
2022-12-31T03:23:32.141Z,87.48
2022-12-31T03:26:00.807Z,87.37
2022-12-31T03:28:30.283Z,87.47
2022-12-31T03:31:00.335Z,87.45
2022-12-31T03:33:32.923Z,87.69
2022-12-31T03:36:06.858Z,87.67
2022-12-31T03:38:33.938Z,87.91
2022-12-31T03:41:01.038Z,88.40
2022-12-31T03:43:28.460Z,88.40
2022-12-31T03:45:56.032Z,88.57
2022-12-31T03:48:23.698Z,87.98
2022-12-31T03:50:51.733Z,88.38
2022-12-31T03:53:18.934Z,88.67
2022-12-31T03:55:45.985Z,89.18
2022-12-31T03:58:13.107Z,89.06
2022-12-31T04:00:40.209Z,89.20
2022-12-31T04:03:07.386Z,89.86
2022-12-31T04:05:34.483Z,89.33
2022-12-31T04:08:03.168Z,89.54
2022-12-31T04:10:30.220Z,90.06
2022-12-31T04:12:57.310Z,90.22
2022-12-31T04:15:24.299Z,89.79
2022-12-31T04:17:51.333Z,90.47
2022-12-31T04:20:19.949Z,90.48
2022-12-31T04:22:47.063Z,90.26
2022-12-31T04:25:14.126Z,90.39
2022-12-31T04:27:43.951Z,90.98
2022-12-31T04:30:13.059Z,90.96
2022-12-31T04:32:40.944Z,91.08
2022-12-31T04:35:08.945Z,90.64
2022-12-31T04:37:36.119Z,90.57
2022-12-31T04:40:06.275Z,90.59
2022-12-31T04:42:34.811Z,90.99
2022-12-31T04:45:01.986Z,91.54
2022-12-31T04:47:29.148Z,91.21
2022-12-31T04:49:56.262Z,91.01
2022-12-31T04:52:23.445Z,91.00
2022-12-31T04:54:50.633Z,91.07
2022-12-31T04:57:17.734Z,91.25
2022-12-31T04:59:44.761Z,91.59
2022-12-31T05:02:12.096Z,92.33
2022-12-31T05:04:39.271Z,91.61
2022-12-31T05:07:06.466Z,91.55
2022-12-31T05:09:33.586Z,91.73
2022-12-31T05:12:00.801Z,92.05
2022-12-31T05:14:28.193Z,91.86
2022-12-31T05:16:55.513Z,91.95
2022-12-31T05:19:22.681Z,92.65
2022-12-31T05:22:09.701Z,92.56
2022-12-31T05:24:36.799Z,92.93
2022-12-31T05:27:03.961Z,92.75
2022-12-31T05:29:31.055Z,93.09
2022-12-31T05:31:58.173Z,92.54
2022-12-31T05:34:25.226Z,92.17
2022-12-31T05:36:52.225Z,92.21
2022-12-31T05:39:19.254Z,93.01
2022-12-31T05:41:46.315Z,92.29
2022-12-31T05:44:13.448Z,92.93
2022-12-31T05:46:40.868Z,92.47
2022-12-31T05:49:08.098Z,92.63
2022-12-31T05:51:35.211Z,92.25
2022-12-31T05:54:02.239Z,92.32
2022-12-31T05:56:29.353Z,92.69
2022-12-31T05:58:56.435Z,92.27
2022-12-31T06:01:23.715Z,92.74
2022-12-31T06:03:50.920Z,92.87
2022-12-31T06:06:18.030Z,92.97
2022-12-31T06:08:45.086Z,92.71
2022-12-31T06:11:12.117Z,93.45
2022-12-31T06:13:39.455Z,93.14
2022-12-31T06:16:11.259Z,93.14
2022-12-31T06:18:38.356Z,93.47
2022-12-31T06:21:05.766Z,93.65
2022-12-31T06:23:33.053Z,93.89
2022-12-31T06:26:04.701Z,93.45
2022-12-31T06:28:31.745Z,93.89
2022-12-31T06:31:03.740Z,93.54
2022-12-31T06:33:31.241Z,94.19
2022-12-31T06:36:00.247Z,93.81
2022-12-31T06:38:29.310Z,94.54
2022-12-31T06:40:56.734Z,94.44
2022-12-31T06:43:24.157Z,93.98
2022-12-31T06:45:51.225Z,94.31
2022-12-31T06:48:18.948Z,94.66
2022-12-31T06:50:45.978Z,95.01
2022-12-31T06:53:13.071Z,95.00
2022-12-31T06:55:40.583Z,94.75
2022-12-31T06:58:13.226Z,94.72
2022-12-31T07:00:51.195Z,94.62
2022-12-31T07:03:56.602Z,95.07
2022-12-31T07:06:34.373Z,95.02
2022-12-31T07:09:07.461Z,95.37
2022-12-31T07:12:18.994Z,95.61
2022-12-31T07:14:52.887Z,95.22
2022-12-31T07:17:26.009Z,94.74
2022-12-31T07:19:57.798Z,95.18
2022-12-31T07:22:25.809Z,95.63
2022-12-31T07:24:53.156Z,95.32
2022-12-31T07:28:01.784Z,95.49
2022-12-31T07:30:34.608Z,95.81
2022-12-31T07:33:07.398Z,95.42
2022-12-31T07:35:52.763Z,96.16
2022-12-31T07:38:49.446Z,96.07
2022-12-31T07:41:28.447Z,96.04
2022-12-31T07:44:11.491Z,96.12
2022-12-31T07:46:59.675Z,96.12
2022-12-31T07:49:29.252Z,95.67
2022-12-31T07:51:56.709Z,96.05
2022-12-31T07:54:23.813Z,96.39
2022-12-31T07:56:51.437Z,96.38
2022-12-31T07:59:40.588Z,96.17
2022-12-31T08:02:16.343Z,96.52
2022-12-31T08:05:00.131Z,96.12
2022-12-31T08:08:03.025Z,96.50
2022-12-31T08:10:42.333Z,96.42
2022-12-31T08:13:12.157Z,96.06
2022-12-31T08:15:41.005Z,96.05
2022-12-31T08:18:08.871Z,96.18
2022-12-31T08:20:46.628Z,96.18
2022-12-31T08:23:45.825Z,95.83
2022-12-31T08:26:18.361Z,95.92
2022-12-31T08:29:06.873Z,95.75
2022-12-31T08:32:03.848Z,95.68
2022-12-31T08:34:58.189Z,95.33
2022-12-31T08:37:44.622Z,95.32
2022-12-31T08:40:23.082Z,95.28
2022-12-31T08:43:22.235Z,94.95
2022-12-31T08:45:51.727Z,94.70
2022-12-31T08:48:40.947Z,94.77
2022-12-31T08:51:19.021Z,94.74
2022-12-31T08:53:48.431Z,94.84
2022-12-31T08:56:52.237Z,94.81
2022-12-31T08:59:42.633Z,94.38
2022-12-31T09:02:28.061Z,93.82
2022-12-31T09:05:22.376Z,93.68
2022-12-31T09:08:09.963Z,93.80
2022-12-31T09:11:23.713Z,94.56
2022-12-31T09:14:15.056Z,94.72
2022-12-31T09:17:00.472Z,95.43
2022-12-31T09:19:28.014Z,96.70
2022-12-31T09:21:55.432Z,98.49
2022-12-31T09:24:22.930Z,99.54
2022-12-31T09:27:14.133Z,100.00
2022-12-31T09:29:57.683Z,100.00
2022-12-31T09:33:06.027Z,100.00
2022-12-31T09:35:48.304Z,100.00
2022-12-31T09:38:36.509Z,100.00
2022-12-31T09:41:20.690Z,100.00
2022-12-31T09:44:02.647Z,100.00
2022-12-31T09:46:32.598Z,100.00
2022-12-31T09:49:24.832Z,100.00
2022-12-31T09:52:11.731Z,100.00
2022-12-31T09:54:50.536Z,100.00
2022-12-31T09:57:40.447Z,100.00
2022-12-31T10:00:31.254Z,100.00
2022-12-31T10:03:15.610Z,100.00
2022-12-31T10:05:50.839Z,100.00
2022-12-31T10:08:48.120Z,100.00
2022-12-31T10:11:25.324Z,100.00
2022-12-31T10:14:29.374Z,100.00
2022-12-31T10:17:01.590Z,100.00
2022-12-31T10:19:31.732Z,100.00
2022-12-31T10:22:04.845Z,100.00
2022-12-31T10:24:41.065Z,100.00
2022-12-31T10:27:14.804Z,100.00
2022-12-31T10:29:57.861Z,100.00
2022-12-31T10:32:45.992Z,100.00
2022-12-31T10:35:27.145Z,100.00
2022-12-31T10:38:20.420Z,100.00
2022-12-31T10:41:18.370Z,99.95
2022-12-31T10:44:22.417Z,99.17
2022-12-31T10:47:32.878Z,99.47
2022-12-31T10:49:59.848Z,98.83
2022-12-31T10:52:26.904Z,98.86
2022-12-31T10:55:09.217Z,98.46
2022-12-31T10:58:21.040Z,98.43
2022-12-31T11:01:15.915Z,98.52
2022-12-31T11:04:07.471Z,98.16
2022-12-31T11:06:46.353Z,98.15
2022-12-31T11:09:50.023Z,98.22
2022-12-31T11:12:54.478Z,97.89
2022-12-31T11:15:21.688Z,97.58
2022-12-31T11:18:06.552Z,97.39
2022-12-31T11:20:42.361Z,97.41
2022-12-31T11:23:37.903Z,96.90
2022-12-31T11:26:34.121Z,96.57
2022-12-31T11:29:15.393Z,96.30
2022-12-31T11:32:09.565Z,96.46
2022-12-31T11:35:08.581Z,96.01
2022-12-31T11:37:44.593Z,96.16
2022-12-31T11:40:20.312Z,96.20
2022-12-31T11:43:13.168Z,95.97
2022-12-31T11:46:10.907Z,95.33
2022-12-31T11:48:53.232Z,95.99
2022-12-31T11:51:26.133Z,95.49
2022-12-31T11:53:57.718Z,95.69
2022-12-31T11:56:29.924Z,96.08
2022-12-31T11:58:57.613Z,95.46
2022-12-31T12:01:44.121Z,95.49
2022-12-31T12:04:11.838Z,95.51
2022-12-31T12:06:40.928Z,95.85
2022-12-31T12:09:16.838Z,95.75
2022-12-31T12:11:43.991Z,95.87
2022-12-31T12:14:32.328Z,95.55
2022-12-31T12:17:04.790Z,95.36
2022-12-31T12:19:34.184Z,95.10
2022-12-31T12:22:14.520Z,94.40
2022-12-31T12:24:52.007Z,95.05
2022-12-31T12:27:25.185Z,95.16
2022-12-31T12:29:52.421Z,94.68
2022-12-31T12:32:25.202Z,95.11
2022-12-31T12:34:53.228Z,95.20
2022-12-31T12:37:35.650Z,94.92
2022-12-31T12:40:06.484Z,95.02
2022-12-31T12:42:33.594Z,94.57
2022-12-31T12:45:08.567Z,94.27
2022-12-31T12:47:35.865Z,93.92
2022-12-31T12:50:04.433Z,94.40
2022-12-31T12:52:53.749Z,93.62
2022-12-31T12:56:05.146Z,93.77
2022-12-31T12:58:53.894Z,93.82
2022-12-31T13:01:36.946Z,93.48
2022-12-31T13:04:33.891Z,93.15
2022-12-31T13:07:28.289Z,93.37
2022-12-31T13:10:13.337Z,93.08
2022-12-31T13:13:27.588Z,92.95
2022-12-31T13:16:13.416Z,93.16
2022-12-31T13:19:00.460Z,92.85
2022-12-31T13:21:31.692Z,92.67
2022-12-31T13:24:07.197Z,92.59
2022-12-31T13:26:53.199Z,92.51
2022-12-31T13:29:27.560Z,93.37
2022-12-31T13:31:57.366Z,93.09
2022-12-31T13:34:28.946Z,92.68
2022-12-31T13:36:59.143Z,93.27
2022-12-31T13:39:31.720Z,93.15
2022-12-31T13:42:16.989Z,93.11
2022-12-31T13:44:55.989Z,93.69
2022-12-31T13:47:38.351Z,93.72
2022-12-31T13:50:34.344Z,93.12
2022-12-31T13:53:27.199Z,93.62
2022-12-31T13:56:06.220Z,93.53
2022-12-31T13:58:58.163Z,93.95
2022-12-31T14:01:39.067Z,94.32
2022-12-31T14:04:16.221Z,94.78
2022-12-31T14:06:55.956Z,94.61
2022-12-31T14:09:27.978Z,94.83
2022-12-31T14:12:30.389Z,95.59
2022-12-31T14:15:16.877Z,95.10
2022-12-31T14:18:05.641Z,95.13
2022-12-31T14:20:49.404Z,95.51
2022-12-31T14:23:40.931Z,95.68
2022-12-31T14:26:17.450Z,95.36
2022-12-31T14:28:58.036Z,95.30
2022-12-31T14:31:28.275Z,95.71
2022-12-31T14:34:11.966Z,95.47
2022-12-31T14:36:41.925Z,94.97
2022-12-31T14:39:17.891Z,95.53
2022-12-31T14:42:23.781Z,95.34
2022-12-31T14:45:27.999Z,95.91
2022-12-31T14:48:09.735Z,96.05
2022-12-31T14:50:37.975Z,96.47
2022-12-31T14:53:06.431Z,95.85
2022-12-31T14:55:38.796Z,95.54
2022-12-31T14:58:32.815Z,96.33
2022-12-31T15:01:19.462Z,95.95
2022-12-31T15:03:46.822Z,95.91
2022-12-31T15:06:19.944Z,96.55
2022-12-31T15:09:20.783Z,96.57
2022-12-31T15:12:04.634Z,96.93
2022-12-31T15:14:50.029Z,97.16
2022-12-31T15:17:50.591Z,96.78
2022-12-31T15:20:51.843Z,96.63
2022-12-31T15:23:34.832Z,96.67
2022-12-31T15:26:02.766Z,96.78
2022-12-31T15:28:34.925Z,96.90
2022-12-31T15:31:18.189Z,96.79
2022-12-31T15:34:05.872Z,96.96
2022-12-31T15:36:39.064Z,96.40
2022-12-31T15:39:12.243Z,97.15
2022-12-31T15:41:46.274Z,96.57
2022-12-31T15:44:33.043Z,97.25
2022-12-31T15:47:15.491Z,96.97
2022-12-31T15:49:47.169Z,96.82
2022-12-31T15:52:20.965Z,97.19
2022-12-31T15:54:56.018Z,96.84
2022-12-31T15:57:37.234Z,97.29
2022-12-31T16:00:23.582Z,96.28
2022-12-31T16:02:54.411Z,96.96
2022-12-31T16:05:26.860Z,96.93
2022-12-31T16:07:59.579Z,97.34
2022-12-31T16:10:32.226Z,97.16
2022-12-31T16:13:00.310Z,97.15
2022-12-31T16:15:32.967Z,97.00
2022-12-31T16:18:22.975Z,97.51
2022-12-31T16:20:52.040Z,96.85
2022-12-31T16:23:23.360Z,97.42
2022-12-31T16:25:53.593Z,96.66
2022-12-31T16:28:24.579Z,96.91
2022-12-31T16:31:03.305Z,96.91
2022-12-31T16:33:31.343Z,96.50
2022-12-31T16:36:00.991Z,96.48
2022-12-31T16:38:36.791Z,96.01
2022-12-31T16:41:09.125Z,95.81
2022-12-31T16:43:38.920Z,96.06
2022-12-31T16:46:11.775Z,96.05
2022-12-31T16:48:39.420Z,95.79
2022-12-31T16:51:07.086Z,95.86
2022-12-31T16:53:38.012Z,95.44
2022-12-31T16:56:09.300Z,95.47
2022-12-31T16:58:45.997Z,95.58
2022-12-31T17:01:23.575Z,95.85
2022-12-31T17:03:58.273Z,95.45
2022-12-31T17:06:28.398Z,95.31
2022-12-31T17:08:59.738Z,95.54
2022-12-31T17:11:32.903Z,95.45
2022-12-31T17:14:05.989Z,95.20
2022-12-31T17:16:36.598Z,95.07
2022-12-31T17:19:04.401Z,94.80
2022-12-31T17:21:33.890Z,94.63
2022-12-31T17:24:06.547Z,94.86
2022-12-31T17:26:38.426Z,94.81
2022-12-31T17:29:06.228Z,94.68
2022-12-31T17:31:39.198Z,94.23
2022-12-31T17:34:15.252Z,94.34
2022-12-31T17:37:02.635Z,94.07
2022-12-31T17:40:24.999Z,94.82
2022-12-31T17:42:49.611Z,94.51
2022-12-31T17:45:21.258Z,94.75
2022-12-31T17:47:52.617Z,94.85
2022-12-31T17:50:25.397Z,95.16
2022-12-31T17:53:08.914Z,94.86
2022-12-31T17:55:36.121Z,94.80
2022-12-31T17:58:06.074Z,94.75
2022-12-31T18:00:34.432Z,94.85
2022-12-31T18:03:01.737Z,95.57
2022-12-31T18:05:29.007Z,95.55
2022-12-31T18:07:56.571Z,95.54
2022-12-31T18:10:25.522Z,95.50
2022-12-31T18:12:52.769Z,95.90
2022-12-31T18:15:22.928Z,96.02
2022-12-31T18:17:50.962Z,95.66
2022-12-31T18:20:18.473Z,95.68
2022-12-31T18:22:46.101Z,96.25
2022-12-31T18:25:24.026Z,96.34
2022-12-31T18:27:51.963Z,96.32
2022-12-31T18:30:19.650Z,96.30
2022-12-31T18:32:47.244Z,96.25
2022-12-31T18:35:57.659Z,97.02
2022-12-31T18:38:13.849Z,95.90
2022-12-31T18:40:44.555Z,96.43
2022-12-31T18:43:19.512Z,96.39
2022-12-31T18:45:48.014Z,96.35
2022-12-31T18:48:16.123Z,96.20
2022-12-31T18:50:43.851Z,96.58
2022-12-31T18:53:17.048Z,96.35
2022-12-31T18:55:52.178Z,96.35
2022-12-31T18:58:19.275Z,96.18
2022-12-31T19:00:47.704Z,95.86
2022-12-31T19:03:17.251Z,95.99
2022-12-31T19:05:45.783Z,96.10
2022-12-31T19:08:12.996Z,96.53
2022-12-31T19:10:40.338Z,96.60
2022-12-31T19:13:12.525Z,96.34
2022-12-31T19:15:44.365Z,96.22
2022-12-31T19:18:11.579Z,96.68
2022-12-31T19:20:39.617Z,95.83
2022-12-31T19:23:13.254Z,96.54
2022-12-31T19:25:40.393Z,95.77
2022-12-31T19:28:22.910Z,96.22
2022-12-31T19:30:50.685Z,95.99
2022-12-31T19:33:18.992Z,95.74
2022-12-31T19:35:46.490Z,95.74
2022-12-31T19:38:25.625Z,95.33
2022-12-31T19:40:53.964Z,94.92
2022-12-31T19:43:23.528Z,95.03
2022-12-31T19:45:51.624Z,95.34
2022-12-31T19:48:22.875Z,94.68
2022-12-31T19:50:55.103Z,95.18
2022-12-31T19:53:25.852Z,94.90
2022-12-31T19:55:53.746Z,94.58
2022-12-31T19:58:24.928Z,94.53
2022-12-31T20:00:58.273Z,94.54
2022-12-31T20:03:29.286Z,94.35
2022-12-31T20:06:06.988Z,94.19
2022-12-31T20:08:35.372Z,94.07
2022-12-31T20:11:14.374Z,93.67
2022-12-31T20:13:43.052Z,93.57
2022-12-31T20:16:12.429Z,93.97
2022-12-31T20:18:40.805Z,93.87
2022-12-31T20:21:14.688Z,93.84
2022-12-31T20:23:41.988Z,93.45
2022-12-31T20:26:09.295Z,93.11
2022-12-31T20:28:37.786Z,93.39
2022-12-31T20:31:09.937Z,93.42
2022-12-31T20:33:37.739Z,93.15
2022-12-31T20:36:07.289Z,93.10
2022-12-31T20:38:34.759Z,93.25
2022-12-31T20:41:13.609Z,92.64
2022-12-31T20:43:41.009Z,92.66
2022-12-31T20:46:15.721Z,93.09
2022-12-31T20:48:44.822Z,93.28
2022-12-31T20:51:13.598Z,93.15
2022-12-31T20:53:40.842Z,92.80
2022-12-31T20:56:10.125Z,92.96
2022-12-31T20:58:37.350Z,93.10
2022-12-31T21:01:09.491Z,92.78
2022-12-31T21:04:04.978Z,92.92
2022-12-31T21:06:26.651Z,92.92
2022-12-31T21:08:56.266Z,92.46
2022-12-31T21:11:42.227Z,92.54
2022-12-31T21:14:09.829Z,92.66
2022-12-31T21:16:37.125Z,92.58
2022-12-31T21:19:04.279Z,92.71
2022-12-31T21:21:31.472Z,92.42
2022-12-31T21:23:58.771Z,92.55
2022-12-31T21:26:26.055Z,92.35
2022-12-31T21:28:53.425Z,92.50
2022-12-31T21:31:20.560Z,92.73
2022-12-31T21:33:48.606Z,92.73
2022-12-31T21:36:16.515Z,92.15
2022-12-31T21:38:44.452Z,92.33
2022-12-31T21:41:33.442Z,92.27
2022-12-31T21:44:01.408Z,91.97
2022-12-31T21:46:28.922Z,91.88
2022-12-31T21:48:57.998Z,91.58
2022-12-31T21:51:25.721Z,91.84
2022-12-31T21:53:52.948Z,92.07
2022-12-31T21:56:21.499Z,92.13
2022-12-31T21:59:15.627Z,92.08
2022-12-31T22:02:01.859Z,91.53
2022-12-31T22:05:01.323Z,92.23
2022-12-31T22:07:16.489Z,91.64
2022-12-31T22:09:43.568Z,91.86
2022-12-31T22:12:10.688Z,91.68
2022-12-31T22:14:37.775Z,91.65
2022-12-31T22:17:04.952Z,91.39
2022-12-31T22:19:33.630Z,91.22
2022-12-31T22:22:10.724Z,91.28
2022-12-31T22:24:37.804Z,91.05
2022-12-31T22:27:29.496Z,90.88
2022-12-31T22:29:52.033Z,90.95
2022-12-31T22:32:19.272Z,90.78
2022-12-31T22:34:46.372Z,90.95
2022-12-31T22:37:44.646Z,91.02
2022-12-31T22:40:00.534Z,90.65
2022-12-31T22:42:27.618Z,90.81
2022-12-31T22:44:54.848Z,90.71
2022-12-31T22:47:21.926Z,91.07
2022-12-31T22:49:48.955Z,90.72
2022-12-31T22:52:16.002Z,91.25
2022-12-31T22:54:43.033Z,91.02
2022-12-31T22:57:14.688Z,90.78
2022-12-31T22:59:46.779Z,90.52
2022-12-31T23:02:13.907Z,90.59
2022-12-31T23:04:40.983Z,90.33
2022-12-31T23:07:08.133Z,90.71
2022-12-31T23:09:53.702Z,90.33
2022-12-31T23:12:20.828Z,90.17
2022-12-31T23:15:06.653Z,89.88
2022-12-31T23:17:52.336Z,89.59
2022-12-31T23:20:42.946Z,89.30
2022-12-31T23:23:15.469Z,89.62
2022-12-31T23:25:48.115Z,89.62
2022-12-31T23:28:18.323Z,89.35
2022-12-31T23:30:45.689Z,89.30
2022-12-31T23:33:21.423Z,89.37
2022-12-31T23:35:49.217Z,88.97
2022-12-31T23:38:18.495Z,88.99
2022-12-31T23:40:45.772Z,88.45
2022-12-31T23:43:21.376Z,88.91
2022-12-31T23:45:50.628Z,88.25
2022-12-31T23:48:17.753Z,88.26
2022-12-31T23:50:50.843Z,88.31
2022-12-31T23:53:19.917Z,88.54
2022-12-31T23:55:46.993Z,88.33
2022-12-31T23:58:14.082Z,88.29
